• Join FlightAware (Why Join?)
  • Login
  • US Flag 
03:43PM EDT


 

Airport Tracker/Info


-or-


 

Live Flight TrackerFlight Track Log ✈ N762NC ✈ 19-Aug-2013 ✈ KATL - KHSV

Flight Track Log - Related Links

Times and Time Zones

All times are in EDT time to prevent confusion due to time zone crossing. See the N762NC flight status page for this flight to view local times or setup timezone preferences in your user account.

Time Position Orientation Groundspeed Altitude Reporting Facility
EDT Latitude Longitude Course Direction KTS MPH feet Rate Location/Type
04:30PM 33.6500 -84.3667 59° Northeast 176 203 2,500  Level Atlanta TRACON
04:31PM 33.6833 -84.3000 59° Northeast 270 311 4,400 2,100 Climbing Atlanta TRACON
04:32PM 33.7500 -84.2667 23° Northeast 279 321 6,800 2,280 Climbing Atlanta TRACON
04:33PM 33.8167 -84.2667 360° North 288 331 9,000 1,560 Climbing Atlanta TRACON
04:35PM 33.8292 -84.4014 276° West 270 311 10,900 1,500 Climbing Atlanta Center
04:36PM 33.8058 -84.5164 256° West 326 375 12,900 1,920 Climbing Atlanta Center
04:37PM 33.7864 -84.6411 259° West 345 397 14,800 1,860 Climbing Atlanta Center
04:38PM 33.7733 -84.7611 263° West 357 411 16,700 1,680 Climbing Atlanta Center
04:39PM 33.7892 -84.8811 279° West 369 425 18,200 1,500 Climbing Atlanta Center
04:40PM 33.8175 -85.0014 286° West 369 425 19,800 1,500 Climbing Atlanta Center
04:41PM 33.8436 -85.1242 284° West 376 433 21,300 1,080 Climbing Atlanta Center
04:42PM 33.8717 -85.2522 285° West 382 440 22,000 300 Climbing Atlanta Center
04:43PM 33.8978 -85.3753 284° West 400 460 22,000  Level Atlanta Center
04:44PM 33.9253 -85.5083 284° West 418 481 22,000 -60 Level Atlanta Center
04:45PM 33.9592 -85.6492 286° West 423 487 21,900  Descending Atlanta Center
04:46PM 34.0306 -85.7608 308° West 420 483 22,000 -2,220 Climbing Atlanta Center
04:48PM 34.0825 -85.8160 319° Northwest  Level FlightAware Approximate
04:49PM 34.2806 -86.0839 319° Northwest 432 497 13,200  Level Memphis Center
04:50PM 34.3692 -86.1728 320° Northwest 413 475 11,300 -1,200 Descending Memphis Center
04:51PM 34.4469 -86.2494 321° Northwest 389 448 10,900 -420 Descending Memphis Center
04:52PM 34.5222 -86.3214 322° Northwest 364 419 10,500 -720 Descending Memphis Center
04:53PM 34.5847 -86.3814 322° Northwest 324 373 9,500 -840 Descending Memphis Center
04:54PM 34.6431 -86.4469 317° Northwest 291 335 8,900 -780 Descending Memphis Center
04:55PM 34.6975 -86.5153 314° West 280 322 8,000 -1,200 Descending Memphis Center
04:56PM 34.7536 -86.5808 316° Northwest 280 322 6,600 -1,560 Descending Memphis Center
04:57PM 34.8017 -86.6494 310° West 274 315 4,900 -1,560 Descending Memphis Center
04:58PM 34.8311 -86.7292 294° West 268 308 3,500 -960 Descending Memphis Center
04:59PM 34.7822 -86.7692 214° Southwest 160 184 3,000 -780 Descending Memphis Center
05:00PM 34.7278 -86.7664 178° South 144 166 2,000 -900 Descending Memphis Center
05:01PM 34.6861 -86.7683 182° South 154 177 1,200 -600 Descending Memphis Center
05:02PM 34.6489 -86.7747 188° South 154 177 800 -420 Descending Memphis Center
05:05PM 34.6333 -86.7667 209° Southwest  Level FlightAware Approximate